Bookmark and Share
Track history (hours):
 

Bourbon Pearl

Last reported at 2014-Apr-14 20:32 UTC. Time now 2014-Apr-17 03:51 UTC.
Position N 32°03' E 030°22'.

Length 91 m; draft 6 m.

Type: Other ship. MMSI: 258176000.

NotesDate/timePositionNaut miles runAvg speedWind from/ knotsBaromVisibWave heightAir tempDewpointWater temp
2014-Apr-14 20:32N 32°03' E 030°22'  
2014-Apr-12 00:33N 32°08' E 030°43'0 0.5
2014-Apr-11 23:33N 32°07' E 030°43'1 0.5
2014-Apr-11 22:33N 32°08' E 030°43'1 0.5
2014-Apr-11 21:33N 32°08' E 030°43'1 0.5
2014-Apr-11 20:33N 32°08' E 030°43'0 0.4
2014-Apr-11 19:33N 32°08' E 030°43'0 0.0
2014-Apr-11 18:32N 32°08' E 030°43'159 7.5
2014-Apr-10 21:16N 34°11' E 032°43'710.5
2014-Apr-10 20:33N 34°17' E 032°49'1010.5
2014-Apr-10 19:33N 34°25' E 032°56'1010.1
2014-Apr-10 18:33N 34°33' E 033°04'7 7.0
2014-Apr-10 17:33N 34°39' E 033°01'0 0.3
2014-Apr-10 16:31N 34°39' E 033°01'0 0.0
2014-Apr-10 15:31N 34°39' E 033°01'0 0.0
2014-Apr-10 14:31N 34°39' E 033°01'0 0.0
2014-Apr-10 13:31N 34°39' E 033°01'0 0.0
2014-Apr-10 12:31N 34°39' E 033°01'0 0.0
2014-Apr-10 11:31N 34°39' E 033°01'0 0.0
2014-Apr-10 10:31N 34°39' E 033°01'0 0.0
2014-Apr-10 09:31N 34°39' E 033°01'0 0.0
2014-Apr-10 08:31N 34°39' E 033°01'0 0.0
2014-Apr-10 07:31N 34°39' E 033°01'0 0.0
2014-Apr-10 06:31N 34°39' E 033°01'0 0.0
2014-Apr-10 05:31N 34°39' E 033°01'0 0.0
2014-Apr-10 04:31N 34°39' E 033°01'0 0.0
2014-Apr-10 03:31N 34°39' E 033°01'0 0.0
2014-Apr-10 02:31N 34°39' E 033°01'0 0.0
2014-Apr-10 01:31N 34°39' E 033°01'0 0.0
2014-Apr-10 00:31N 34°39' E 033°01'0 0.0
2014-Apr-09 23:31N 34°39' E 033°01'0 0.0
2014-Apr-09 22:31N 34°39' E 033°01'0 0.0
2014-Apr-09 21:31N 34°39' E 033°01'0 0.0
2014-Apr-09 20:31N 34°39' E 033°01'0 0.0
2014-Apr-09 19:31N 34°39' E 033°01'0 0.0
2014-Apr-09 18:31N 34°39' E 033°01'0 0.0
2014-Apr-09 17:31N 34°39' E 033°01'0 0.0
2014-Apr-09 16:31N 34°39' E 033°01'0 0.0
2014-Apr-09 15:31N 34°39' E 033°01'0 0.0
2014-Apr-09 14:31N 34°39' E 033°01'0 0.0
2014-Apr-09 13:31N 34°39' E 033°01'0 0.0
2014-Apr-09 12:31N 34°39' E 033°01'0 0.0
2014-Apr-09 11:31N 34°39' E 033°01'0 0.0
2014-Apr-09 10:31N 34°39' E 033°01'0 0.0
2014-Apr-09 09:31N 34°39' E 033°01'0 0.0
2014-Apr-09 08:31N 34°39' E 033°01'0 0.0
2014-Apr-09 07:31N 34°39' E 033°01'0 0.0
2014-Apr-09 06:31N 34°39' E 033°01'0 0.0
2014-Apr-09 05:31N 34°39' E 033°01'0 0.0
2014-Apr-09 04:31N 34°39' E 033°01'0 0.0
2014-Apr-09 03:31N 34°39' E 033°01'0 0.0
2014-Apr-09 02:31N 34°39' E 033°01'0 0.0
2014-Apr-09 01:31N 34°39' E 033°01'0 0.0
2014-Apr-09 00:31N 34°39' E 033°01'0 0.0
2014-Apr-08 23:31N 34°39' E 033°01'0 0.0
2014-Apr-08 22:31N 34°39' E 033°01'0 0.0
2014-Apr-08 21:31N 34°39' E 033°01'0 0.0
2014-Apr-08 20:31N 34°39' E 033°01'0 0.0
2014-Apr-08 19:31N 34°39' E 033°01'0 0.0
2014-Apr-08 18:31N 34°39' E 033°01'0 0.0
2014-Apr-08 17:31N 34°39' E 033°01'0 0.0
2014-Apr-08 16:31N 34°39' E 033°01'0 0.0
2014-Apr-08 15:31N 34°39' E 033°01'0 0.0
2014-Apr-08 14:31N 34°39' E 033°01'0 0.0
2014-Apr-08 13:31N 34°39' E 033°01'0 0.0
2014-Apr-08 12:31N 34°39' E 033°01'0 0.0
2014-Apr-08 11:31N 34°39' E 033°01'0 0.0
2014-Apr-08 10:31N 34°39' E 033°01'0 0.0
2014-Apr-08 09:31N 34°39' E 033°01'0 0.0
2014-Apr-08 08:31N 34°39' E 033°01'0 0.0
2014-Apr-08 07:31N 34°39' E 033°01'0 0.0
2014-Apr-08 06:31N 34°39' E 033°01'0 0.0
2014-Apr-08 05:31N 34°39' E 033°01'0 0.0
2014-Apr-08 04:31N 34°39' E 033°01'0 0.0
2014-Apr-08 03:31N 34°39' E 033°01'0 0.0
2014-Apr-08 02:31N 34°39' E 033°01'0 0.0
2014-Apr-08 01:31N 34°39' E 033°01'0 0.0
2014-Apr-08 00:31N 34°39' E 033°01'0 0.0
2014-Apr-07 23:31N 34°39' E 033°01'0 0.0
2014-Apr-07 22:31N 34°39' E 033°01'0 0.0
2014-Apr-07 21:31N 34°39' E 033°01'0 0.0
2014-Apr-07 20:31N 34°39' E 033°01'0 0.0
2014-Apr-07 19:31N 34°39' E 033°01'0 0.0
2014-Apr-07 17:31N 34°39' E 033°01'0 0.0
2014-Apr-07 16:31N 34°39' E 033°01'0 0.0
2014-Apr-07 15:31N 34°39' E 033°01'0 0.0
2014-Apr-07 14:31N 34°39' E 033°01'0 0.0
2014-Apr-07 13:31N 34°39' E 033°01'0 0.0
2014-Apr-07 12:31N 34°39' E 033°01'0 0.0
2014-Apr-07 11:31N 34°39' E 033°01'0 0.0
2014-Apr-07 10:31N 34°39' E 033°01'0 0.0
2014-Apr-07 09:31N 34°39' E 033°01'0 0.0
2014-Apr-07 08:31N 34°39' E 033°01'0 0.0
2014-Apr-07 07:31N 34°39' E 033°01'0 0.0
2014-Apr-07 06:31N 34°39' E 033°01'0 0.0
2014-Apr-07 05:31N 34°39' E 033°01'0 0.0
2014-Apr-07 04:31N 34°39' E 033°01'0 0.0
2014-Apr-07 03:31N 34°39' E 033°01'0 0.0
2014-Apr-07 02:31N 34°39' E 033°01'0 0.0
2014-Apr-07 01:31N 34°39' E 033°01'0 0.0
2014-Apr-07 00:31N 34°39' E 033°01'0 0.0
2014-Apr-06 23:31N 34°39' E 033°01'0 0.0
2014-Apr-06 22:31N 34°39' E 033°01'0 0.0
2014-Apr-06 21:31N 34°39' E 033°01'0 0.0
2014-Apr-06 20:31N 34°39' E 033°01'0 0.0
2014-Apr-06 19:31N 34°39' E 033°01'0 0.0
2014-Apr-06 18:31N 34°39' E 033°01'0 0.0
2014-Apr-06 17:31N 34°39' E 033°01'0 0.0
2014-Apr-06 16:31N 34°39' E 033°01'0 0.0
2014-Apr-06 15:31N 34°39' E 033°01'0 0.0
2014-Apr-06 14:31N 34°39' E 033°01'0 0.0
2014-Apr-06 13:31N 34°39' E 033°01'0 0.0
2014-Apr-06 12:31N 34°39' E 033°01'0 0.0
2014-Apr-06 11:31N 34°39' E 033°01'0 0.0
2014-Apr-06 10:31N 34°39' E 033°01'0 0.0
2014-Apr-06 09:31N 34°39' E 033°01'0 0.0
2014-Apr-06 08:31N 34°39' E 033°01'0 0.0
2014-Apr-06 07:31N 34°39' E 033°01'0 0.0
2014-Apr-06 06:31N 34°39' E 033°01'0 0.0
2014-Apr-06 05:31N 34°39' E 033°01'0 0.0
2014-Apr-06 04:31N 34°39' E 033°01'0 0.0
2014-Apr-06 03:31N 34°39' E 033°01'0 0.0
2014-Apr-06 02:31N 34°39' E 033°01'0 0.0
2014-Apr-06 01:31N 34°39' E 033°01'0 0.0
2014-Apr-06 00:31N 34°39' E 033°01'0 0.0
2014-Apr-05 23:31N 34°39' E 033°01'0 0.0
2014-Apr-05 22:31N 34°39' E 033°01'0 0.0
2014-Apr-05 21:31N 34°39' E 033°01'0 0.0
2014-Apr-05 20:28N 34°39' E 033°01'0 0.0
2014-Apr-05 19:31N 34°39' E 033°01'0 0.0
2014-Apr-05 18:31N 34°39' E 033°01'0 0.0
2014-Apr-05 17:31N 34°39' E 033°01'0 0.0
2014-Apr-05 16:31N 34°39' E 033°01'0 0.0
2014-Apr-05 15:31N 34°39' E 033°01'0 0.0
2014-Apr-05 14:31N 34°39' E 033°01'0 0.0
2014-Apr-05 13:25N 34°39' E 033°01'0 0.0
2014-Apr-05 12:31N 34°39' E 033°01'0 0.0
2014-Apr-05 11:31N 34°39' E 033°01'0 0.0
2014-Apr-05 10:31N 34°39' E 033°01'0 0.0
2014-Apr-05 09:31N 34°39' E 033°01'0 0.0
2014-Apr-05 08:31N 34°39' E 033°01'0 0.0
2014-Apr-05 07:31N 34°39' E 033°01'0 0.0
2014-Apr-05 06:31N 34°39' E 033°01'0 0.0
2014-Apr-05 05:31N 34°39' E 033°01'0 0.0
2014-Apr-05 04:31N 34°39' E 033°01'0 0.0
2014-Apr-05 03:31N 34°39' E 033°01'0 0.0
2014-Apr-05 02:31N 34°39' E 033°01'0 0.0
2014-Apr-05 01:31N 34°39' E 033°01'0 0.0
2014-Apr-05 00:31N 34°39' E 033°01'0 0.0
2014-Apr-04 23:31N 34°39' E 033°01'0 0.0
2014-Apr-04 22:31N 34°39' E 033°01'0 0.0
2014-Apr-04 21:31N 34°39' E 033°01'  

Dump ship's entire track history

sailing weather and tide predictions

Bourbon Pearl — LCTD — position and weather